KLLQ

Monticello Municipal / Ellis Field Airport

Monticello, Arkansas, USA
KLLQ 100751Z 1008/1106 00000KT 5SM BR SKC FM101400 34006KT P6SM SCT250 FM110000 VRB03KT P6SM SKC
Issued Valid From Valid To
Dec-10 @ 07:51 UTC
(3 hours ago)
Dec-10 @ 08:00 UTC
(3 hours ago)
Dec-11 @ 06:00 UTC
(in 19 hours)
Dec-10 @ 08:00 to Dec-10 @ 14:00
KLLQ 100751Z 1008/1106 00000KT 5SM BR SKC
Visibility Clouds Conditions
5 miles
  • Clear skies
  • Mist
From Dec-10 @ 14:00 to Dec-11 @ 00:00
FM101400 34006KT P6SM SCT250
Wind Visibility Clouds
340° at 6 knots Greater than 6 miles
  • Scattered at 25,000' AGL
From Dec-11 @ 00:00 to Dec-11 @ 06:00
FM110000 VRB03KT P6SM SKC
Wind Visibility Clouds
Variable at 3 knots Greater than 6 miles
  • Clear skies
KLLQ 100751Z 1008/1106 00000KT 5SM BR SKC FM101400 34006KT P6SM SCT250 FM110000 VRB03KT P6SM SKC
Issued Dec-10 @ 07:51 UTC
(3 hours ago)
Valid From Dec-10 @ 08:00 UTC
(3 hours ago)
Valid To Dec-11 @ 06:00 UTC
(in 19 hours)
Dec-10 @ 08:00 - Dec-10 @ 14:00
Clouds
  • Clear skies
Conditions
  • Mist
From Dec-10 @ 14:00 - Dec-11 @ 00:00
Wind Visibility
340° at 6 knots Greater than 6 miles
Clouds
  • Scattered at 25,000' AGL
From Dec-11 @ 00:00 - Dec-11 @ 06:00
Wind Visibility
Variable at 3 knots Greater than 6 miles
Clouds
  • Clear skies